Time;durP1;ratioP1;P1;durP2;ratioP2;P2;SDS_P1;SDS_P2;PMS_P1;PMS_P2;Temp;Humidity;BMP_temperature;BMP_pressure;BME280_temperature;BME280_humidity;BME280_pressure;Samples;Min_cycle;Max_cycle;Signal;HPM_P1;HPM_P2
2022/03/29 00:02:24;;;;;;;22.10;11.45;;;;;;;11.00;52.83;98056.66;4954459;28;20031;-77
2022/03/29 00:04:49;;;;;;;22.35;11.77;;;;;;;10.96;52.15;98082.28;4955560;28;20030;-77
2022/03/29 00:07:15;;;;;;;24.67;12.23;;;;;;;10.87;53.59;98077.53;4954712;28;20035;-78
2022/03/29 00:09:41;;;;;;;21.77;12.18;;;;;;;10.77;53.80;98068.72;4954269;28;20055;-77
2022/03/29 00:12:06;;;;;;;21.95;12.43;;;;;;;10.64;54.93;98060.19;4954339;28;20028;-78
2022/03/29 00:14:32;;;;;;;21.23;11.65;;;;;;;10.49;56.07;98057.75;4956460;28;20487;-78
2022/03/29 00:16:57;;;;;;;23.23;12.38;;;;;;;10.36;59.10;98068.41;4954709;28;20032;-78
2022/03/29 00:19:22;;;;;;;17.00;10.50;;;;;;;10.23;57.27;98050.03;4954377;28;20031;-78
2022/03/29 00:21:48;;;;;;;18.42;11.20;;;;;;;10.14;57.75;98058.16;4954391;28;20475;-77
2022/03/29 00:24:13;;;;;;;22.70;12.68;;;;;;;10.05;58.13;98043.50;4954236;28;20035;-77
2022/03/29 00:26:39;;;;;;;19.55;11.60;;;;;;;9.98;58.26;98044.72;4954419;28;20042;-78
2022/03/29 00:29:04;;;;;;;21.85;12.77;;;;;;;9.91;59.02;98038.03;4954517;28;20031;-77
2022/03/29 00:31:29;;;;;;;19.50;11.98;;;;;;;9.81;58.44;98034.34;4970632;28;20027;-77
2022/03/29 00:33:55;;;;;;;18.65;11.27;;;;;;;9.79;58.25;98042.06;4958329;28;20066;-77
2022/03/29 00:36:20;;;;;;;21.10;12.90;;;;;;;9.68;59.39;98040.59;4954162;28;20019;-77
2022/03/29 00:38:47;;;;;;;23.48;14.32;;;;;;;9.63;58.62;98030.56;4953153;28;20387;-77
2022/03/29 00:41:13;;;;;;;22.42;13.25;;;;;;;9.65;59.05;98019.28;4953007;28;20388;-77
2022/03/29 00:43:40;;;;;;;24.65;12.95;;;;;;;9.66;58.62;98010.78;4953809;28;20019;-77
2022/03/29 00:46:05;;;;;;;22.38;13.48;;;;;;;9.68;60.64;98021.44;4953746;28;20054;-77
2022/03/29 00:48:31;;;;;;;20.38;12.57;;;;;;;9.64;59.43;98014.94;4957985;28;20459;-77
2022/03/29 00:50:57;;;;;;;19.00;12.85;;;;;;;9.58;59.02;98000.53;4973434;28;20035;-77
2022/03/29 00:53:23;;;;;;;22.48;13.60;;;;;;;9.51;59.55;97997.38;4972992;28;20471;-76
2022/03/29 00:55:50;;;;;;;21.42;12.50;;;;;;;9.45;59.27;97990.34;4973097;28;20173;-77
2022/03/29 00:58:16;;;;;;;20.92;12.82;;;;;;;9.37;58.78;97991.84;4973248;28;20070;-77
2022/03/29 01:00:42;;;;;;;23.17;13.18;;;;;;;9.29;58.86;97979.69;4973117;28;20034;-77
2022/03/29 01:03:08;;;;;;;22.85;13.48;;;;;;;9.26;59.04;97979.44;4968680;28;20019;-76
2022/03/29 01:05:34;;;;;;;19.90;13.10;;;;;;;9.23;58.95;97981.69;4953766;28;20068;-77
2022/03/29 01:08:00;;;;;;;21.70;13.52;;;;;;;9.22;58.67;97982.78;4952431;28;20423;-77
2022/03/29 01:10:27;;;;;;;22.63;13.05;;;;;;;9.18;58.61;97976.28;4953567;28;20027;-76
2022/03/29 01:12:55;;;;;;;22.52;13.75;;;;;;;9.11;59.07;97961.38;4953712;28;20037;-77
2022/03/29 01:15:22;;;;;;;22.30;14.18;;;;;;;9.05;59.45;97966.13;4953148;28;20038;-77
2022/03/29 01:17:49;;;;;;;24.05;14.52;;;;;;;9.05;59.75;97966.13;4955329;28;20039;-76
2022/03/29 01:20:27;;;;;;;23.63;14.18;;;;;;;9.02;59.65;97950.31;4954518;28;20079;-76
2022/03/29 01:22:54;;;;;;;25.48;13.82;;;;;;;8.97;59.47;97955.84;4954006;28;20034;-76
2022/03/29 01:25:25;;;;;;;21.33;13.27;;;;;;;8.92;59.78;97954.03;4954289;28;20510;-76
2022/03/29 01:27:52;;;;;;;22.10;13.50;;;;;;;8.91;59.53;97949.66;4954427;28;20034;-76
2022/03/29 01:30:20;;;;;;;25.25;17.30;;;;;;;8.89;59.62;97947.22;4954114;28;20027;-76
2022/03/29 01:32:50;;;;;;;24.40;15.38;;;;;;;8.88;60.14;97942.06;4954568;28;20034;-76
2022/03/29 01:35:16;;;;;;;;;;;;;;;8.93;59.85;97953.72;4954640;28;20487;-76
2022/03/29 01:37:42;;;;;;;24.65;14.85;;;;;;;8.98;60.18;97952.81;4953876;28;19915;-76
2022/03/29 01:40:10;;;;;;;24.73;14.98;;;;;;;9.00;60.39;97941.59;4954234;28;20493;-76
2022/03/29 01:42:36;;;;;;;24.90;14.30;;;;;;;9.11;61.69;97934.00;4953951;28;20066;-76
2022/03/29 01:45:02;;;;;;;27.23;15.63;;;;;;;9.22;61.57;97911.63;4971440;28;20105;-76
2022/03/29 01:47:27;;;;;;;21.63;12.55;;;;;;;9.28;61.35;97897.88;4972846;28;20098;-76
2022/03/29 01:49:53;;;;;;;23.65;13.52;;;;;;;9.31;61.21;97895.38;4972573;28;20419;-76
2022/03/29 01:52:19;;;;;;;23.27;13.63;;;;;;;9.36;60.79;97908.13;4971114;28;20027;-76
2022/03/29 01:54:45;;;;;;;23.27;14.13;;;;;;;9.37;61.12;97894.13;4972669;28;20031;-76
2022/03/29 01:57:11;;;;;;;24.10;13.85;;;;;;;9.42;61.42;97898.72;4974508;28;20038;-76
2022/03/29 02:02:21;;;;;;;21.10;13.05;;;;;;;9.51;61.14;97899.66;4963524;28;20042;-76
2022/03/29 02:04:47;;;;;;;22.13;12.77;;;;;;;9.53;60.37;97893.84;4957378;28;20023;-76
2022/03/29 02:07:12;;;;;;;21.88;13.48;;;;;;;9.54;60.28;97895.47;4957575;28;20085;-77
2022/03/29 02:09:38;;;;;;;22.55;13.55;;;;;;;9.51;60.17;97888.69;4957667;28;20105;-76
2022/03/29 02:12:05;;;;;;;23.55;13.98;;;;;;;9.49;59.70;97888.19;4957138;28;20038;-75
2022/03/29 02:14:30;;;;;;;23.63;13.95;;;;;;;9.46;59.88;97893.44;4957311;28;20027;-75
2022/03/29 02:16:56;;;;;;;23.80;14.45;;;;;;;9.41;59.76;97893.53;4957569;28;20383;-75
2022/03/29 02:19:21;;;;;;;23.48;14.07;;;;;;;9.35;59.45;97890.91;4973498;28;20053;-76
2022/03/29 02:21:46;;;;;;;23.50;14.00;;;;;;;9.24;59.52;97875.78;4975369;28;20066;-73
2022/03/29 02:24:12;;;;;;;23.58;14.02;;;;;;;9.16;59.68;97892.88;4976432;28;20030;-74
2022/03/29 02:26:37;;;;;;;28.17;15.93;;;;;;;9.03;59.84;97891.75;4976332;28;20110;-74
2022/03/29 02:29:03;;;;;;;24.33;15.25;;;;;;;8.93;60.54;97899.00;4976844;28;20038;-74
2022/03/29 02:31:28;;;;;;;24.70;15.38;;;;;;;8.87;60.07;97892.00;4976688;28;20062;-73
2022/03/29 02:33:53;;;;;;;28.17;16.90;;;;;;;8.81;60.76;97881.47;4953104;28;20029;-74
2022/03/29 02:36:19;;;;;;;29.40;18.10;;;;;;;8.78;60.62;97886.41;4956991;28;20399;-74
2022/03/29 02:38:44;;;;;;;31.35;18.42;;;;;;;8.74;61.07;97890.06;4957483;28;20472;-72
2022/03/29 02:41:10;;;;;;;28.77;16.63;;;;;;;8.68;60.94;97878.38;4956666;28;20043;-73
2022/03/29 02:43:35;;;;;;;30.33;17.88;;;;;;;8.62;61.12;97882.28;4955821;28;20465;-73
2022/03/29 02:46:03;;;;;;;29.98;16.73;;;;;;;8.58;60.46;97894.91;4955541;28;20023;-73
2022/03/29 02:48:30;;;;;;;26.55;15.57;;;;;;;8.48;60.59;97887.66;4956551;28;20035;-73
2022/03/29 02:50:56;;;;;;;26.25;15.50;;;;;;;8.40;61.27;97880.13;4955765;28;20495;-74
2022/03/29 02:53:22;;;;;;;26.38;15.85;;;;;;;8.33;61.40;97881.34;4956171;28;20027;-73
2022/03/29 02:55:47;;;;;;;25.33;15.75;;;;;;;8.26;61.90;97875.44;4957143;28;20527;-73
2022/03/29 02:58:13;;;;;;;25.90;16.10;;;;;;;8.20;61.63;97877.41;4956590;28;20113;-74
2022/03/29 03:00:38;;;;;;;29.15;16.50;;;;;;;8.14;61.85;97877.78;4956644;28;20458;-73
2022/03/29 03:03:04;;;;;;;28.58;16.63;;;;;;;8.10;62.03;97885.75;4956681;28;20038;-74
2022/03/29 03:05:30;;;;;;;29.00;16.35;;;;;;;8.07;62.52;97878.16;4956972;28;20027;-73
2022/03/29 03:07:55;;;;;;;28.73;16.40;;;;;;;8.03;62.45;97869.72;4954822;28;20384;-73
2022/03/29 03:10:21;;;;;;;26.42;15.40;;;;;;;8.03;62.56;97872.44;4955336;28;20039;-73
2022/03/29 03:12:49;;;;;;;26.33;16.88;;;;;;;8.01;62.73;97877.38;4956176;28;20058;-73
2022/03/29 03:15:16;;;;;;;26.88;16.70;;;;;;;7.99;63.03;97879.59;4956708;28;20403;-73
2022/03/29 03:17:42;;;;;;;27.58;16.10;;;;;;;7.97;63.51;97878.28;4956096;28;20110;-73
2022/03/29 03:20:08;;;;;;;24.65;14.55;;;;;;;7.94;62.81;97876.97;4956738;28;20031;-73
2022/03/29 03:22:38;;;;;;;28.45;16.15;;;;;;;7.90;62.97;97878.66;4956089;28;20427;-73
2022/03/29 03:25:05;;;;;;;25.33;15.43;;;;;;;7.89;62.97;97893.41;4956573;28;20822;-74
2022/03/29 03:27:30;;;;;;;25.25;15.30;;;;;;;7.85;62.91;97904.09;4956140;28;20168;-73
2022/03/29 03:29:56;;;;;;;27.83;15.77;;;;;;;7.83;63.45;97902.75;4956266;28;20066;-73
2022/03/29 03:32:21;;;;;;;29.20;16.25;;;;;;;7.80;63.62;97898.69;4961810;28;20030;-73
2022/03/29 03:34:47;;;;;;;29.80;17.75;;;;;;;7.77;63.63;97898.47;4974597;28;20038;-73
2022/03/29 03:37:14;;;;;;;31.58;19.65;;;;;;;7.74;63.79;97895.22;4974579;28;20063;-73
2022/03/29 03:39:39;;;;;;;31.27;18.35;;;;;;;7.70;63.90;97899.63;4975722;28;20041;-73
2022/03/29 03:42:07;;;;;;;30.00;17.02;;;;;;;7.66;63.43;97906.75;4975412;28;20023;-73
2022/03/29 03:44:33;;;;;;;31.35;19.23;;;;;;;7.61;64.11;97893.16;4975084;28;20510;-74
2022/03/29 03:47:00;;;;;;;33.78;20.60;;;;;;;7.56;63.91;97890.50;4975044;28;20406;-73
2022/03/29 03:49:26;;;;;;;31.48;21.27;;;;;;;7.53;64.28;97883.72;4975140;28;20030;-73
2022/03/29 03:51:51;;;;;;;37.40;21.25;;;;;;;7.52;64.15;97887.56;4975192;28;20037;-73
2022/03/29 03:54:16;;;;;;;34.13;19.83;;;;;;;7.52;64.02;97887.56;4975045;28;20113;-73
2022/03/29 03:56:42;;;;;;;34.97;22.30;;;;;;;7.51;64.12;97896.03;4974825;28;20493;-73
2022/03/29 03:59:07;;;;;;;33.75;20.48;;;;;;;7.51;64.39;97896.03;4974952;28;20034;-73
2022/03/29 04:01:34;;;;;;;29.13;17.27;;;;;;;7.50;64.51;97902.59;4973948;28;20023;-73
2022/03/29 04:04:00;;;;;;;29.60;17.10;;;;;;;7.51;64.80;97893.31;4963915;28;20446;-73
2022/03/29 04:06:25;;;;;;;27.13;15.38;;;;;;;7.55;65.22;97900.63;4955903;28;20069;-73
2022/03/29 04:08:51;;;;;;;24.27;14.77;;;;;;;7.58;65.35;97882.84;4955395;28;20054;-73
2022/03/29 04:11:16;;;;;;;25.70;15.10;;;;;;;7.63;65.00;97877.31;4955519;28;20093;-73
2022/03/29 04:13:42;;;;;;;27.27;16.20;;;;;;;7.66;65.21;97878.69;4965570;28;20050;-73
2022/03/29 04:16:07;;;;;;;24.05;14.50;;;;;;;7.72;65.14;97880.25;4975075;28;20034;-73
2022/03/29 04:18:33;;;;;;;23.88;15.48;;;;;;;7.74;64.90;97876.09;4974149;28;20031;-73
2022/03/29 04:20:58;;;;;;;29.75;21.33;;;;;;;7.75;64.96;97875.00;4973574;28;20027;-73
2022/03/29 04:23:24;;;;;;;31.42;20.08;;;;;;;7.76;65.09;97875.78;4974301;28;20027;-73
2022/03/29 04:25:49;;;;;;;24.90;15.00;;;;;;;7.75;64.77;97875.00;4974535;28;20098;-73
2022/03/29 04:28:15;;;;;;;24.13;14.48;;;;;;;7.75;64.99;97857.78;4974360;28;20023;-73
2022/03/29 04:30:40;;;;;;;29.50;17.80;;;;;;;7.76;65.18;97859.41;4974528;28;20034;-73
2022/03/29 04:33:06;;;;;;;30.15;18.25;;;;;;;7.81;65.35;97861.28;4973980;28;20102;-73
2022/03/29 04:35:32;;;;;;;29.98;17.25;;;;;;;7.84;65.22;97852.50;4974531;28;20035;-73
2022/03/29 04:37:57;;;;;;;35.72;20.30;;;;;;;7.83;65.04;97861.81;4974673;28;20049;-73
2022/03/29 04:40:23;;;;;;;28.90;18.33;;;;;;;7.81;64.87;97850.38;4974145;28;20035;-73
2022/03/29 04:42:50;;;;;;;31.55;19.17;;;;;;;7.78;64.83;97851.75;4974171;28;20035;-73
2022/03/29 04:45:17;;;;;;;32.15;20.25;;;;;;;7.78;64.96;97857.22;4974239;28;20390;-73
2022/03/29 04:47:43;;;;;;;27.98;17.52;;;;;;;7.78;65.27;97859.13;4974456;28;20031;-73
2022/03/29 04:50:12;;;;;;;26.77;15.20;;;;;;;7.75;65.19;97861.34;4973836;28;20394;-73
2022/03/29 04:52:44;;;;;;;27.23;16.20;;;;;;;7.73;65.45;97860.81;4973756;28;20026;-73
2022/03/29 04:55:12;;;;;;;26.60;17.17;;;;;;;7.75;66.13;97882.34;4974195;28;20047;-73
2022/03/29 04:57:38;;;;;;;25.95;15.52;;;;;;;7.77;65.77;97868.44;4973979;28;20029;-73
2022/03/29 05:00:04;;;;;;;24.70;15.80;;;;;;;7.82;66.27;97876.56;4974050;28;20445;-73
2022/03/29 05:02:31;;;;;;;27.42;16.00;;;;;;;7.89;65.86;97879.75;4973918;28;20057;-73
2022/03/29 05:04:56;;;;;;;27.52;16.35;;;;;;;7.98;66.13;97888.09;4955301;28;20053;-73
2022/03/29 05:07:23;;;;;;;31.90;17.55;;;;;;;8.08;66.33;97890.69;4954661;28;20468;-74
2022/03/29 05:09:49;;;;;;;36.70;20.65;;;;;;;8.17;66.09;97883.44;4953997;28;20078;-73
2022/03/29 05:12:15;;;;;;;34.88;19.20;;;;;;;8.27;65.99;97879.78;4954253;28;20066;-73
2022/03/29 05:14:40;;;;;;;29.70;16.90;;;;;;;8.35;65.95;97873.63;4954191;28;20024;-73
2022/03/29 05:17:06;;;;;;;31.83;15.93;;;;;;;8.44;66.10;97876.53;4954675;28;20472;-74
2022/03/29 05:19:31;;;;;;;34.20;17.10;;;;;;;8.51;66.07;97873.44;4954359;28;20028;-73
2022/03/29 05:21:56;;;;;;;47.90;21.08;;;;;;;8.58;65.93;97884.81;4954517;28;20030;-73
2022/03/29 05:24:22;;;;;;;43.20;20.00;;;;;;;8.69;65.68;97903.78;4953978;28;20027;-73
2022/03/29 05:26:47;;;;;;;42.33;18.38;;;;;;;8.74;65.20;97900.97;4954179;28;20020;-74
2022/03/29 05:29:13;;;;;;;48.72;21.90;;;;;;;8.77;65.42;97906.66;4954080;28;20475;-73
2022/03/29 05:31:38;;;;;;;40.10;19.40;;;;;;;8.83;65.87;97910.13;4954351;28;20051;-74
2022/03/29 05:34:04;;;;;;;35.47;17.73;;;;;;;8.82;65.19;97913.16;4954226;28;20015;-73
2022/03/29 05:36:30;;;;;;;41.85;18.83;;;;;;;8.76;65.18;97915.97;4953953;28;20038;-73
2022/03/29 05:38:55;;;;;;;35.97;18.73;;;;;;;8.67;64.78;97923.22;4954310;28;20455;-73
2022/03/29 05:41:21;;;;;;;35.03;19.10;;;;;;;8.61;65.42;97927.97;4953929;28;20028;-74
2022/03/29 05:43:48;;;;;;;32.17;16.83;;;;;;;8.54;65.51;97932.97;4954060;28;20140;-75
2022/03/29 05:48:59;;;;;;;27.88;15.90;;;;;;;8.32;66.45;97936.25;4954423;28;20470;-75
2022/03/29 05:51:26;;;;;;;29.50;17.67;;;;;;;8.24;66.38;97929.53;4953680;28;20471;-75
2022/03/29 05:53:54;;;;;;;27.52;14.60;;;;;;;8.20;67.50;97912.13;4954204;28;20035;-76
2022/03/29 05:56:20;;;;;;;25.73;15.40;;;;;;;8.16;66.82;97906.41;4954097;28;20033;-75
2022/03/29 05:58:46;;;;;;;58.22;23.17;;;;;;;8.10;66.96;97906.78;4953946;28;20067;-75
2022/03/29 06:01:12;;;;;;;35.30;19.05;;;;;;;8.03;66.96;97894.28;4953896;28;20081;-75
2022/03/29 06:03:38;;;;;;;28.35;16.80;;;;;;;8.05;66.86;97896.75;4953116;28;20058;-75
2022/03/29 06:06:03;;;;;;;33.38;18.92;;;;;;;8.05;67.04;97922.13;4963848;28;20070;-75
2022/03/29 06:08:29;;;;;;;32.15;16.92;;;;;;;8.04;67.28;97904.13;4972897;28;20462;-75
2022/03/29 06:10:55;;;;;;;31.50;18.95;;;;;;;8.00;67.34;97899.53;4972752;28;20026;-75
2022/03/29 06:13:21;;;;;;;30.73;20.80;;;;;;;7.96;66.96;97896.56;4971962;28;20368;-74
2022/03/29 06:15:46;;;;;;;28.77;19.02;;;;;;;8.02;67.50;97898.13;4973167;28;20086;-74
2022/03/29 06:18:12;;;;;;;23.27;15.73;;;;;;;8.13;68.32;97892.53;4970104;28;20027;-74
2022/03/29 06:20:38;;;;;;;26.27;16.13;;;;;;;8.17;67.49;97894.38;4972528;28;20046;-74
2022/03/29 06:23:03;;;;;;;25.50;15.85;;;;;;;8.21;67.73;97900.09;4972420;28;20031;-75
2022/03/29 06:25:32;;;;;;;29.52;17.80;;;;;;;8.29;67.81;97896.69;4973059;28;20061;-74
2022/03/29 06:27:57;;;;;;;31.35;18.75;;;;;;;8.37;68.15;97899.84;4973190;28;20027;-74
2022/03/29 06:30:23;;;;;;;37.08;23.50;;;;;;;8.39;67.79;97905.84;4972550;28;20042;-74
2022/03/29 06:32:50;;;;;;;38.03;21.05;;;;;;;8.40;67.62;97907.47;4972866;28;20034;-75
2022/03/29 06:35:37;;;;;;;33.78;19.88;;;;;;;8.43;68.27;97913.16;4972538;28;20026;-74
2022/03/29 06:38:03;;;;;;;29.20;17.23;;;;;;;8.46;68.79;97917.22;4973360;28;20382;-74
2022/03/29 06:40:30;;;;;;;27.30;16.80;;;;;;;8.43;69.03;97913.16;4972729;28;20131;-74
2022/03/29 06:42:57;;;;;;;27.17;15.75;;;;;;;8.46;68.70;97918.03;4974258;28;20038;-74
2022/03/29 06:45:23;;;;;;;28.83;16.27;;;;;;;8.45;70.47;97910.94;4965440;28;20023;-74
2022/03/29 06:47:49;;;;;;;34.97;18.92;;;;;;;8.47;69.85;97919.66;4957314;28;20023;-74
2022/03/29 06:50:15;;;;;;;33.95;18.90;;;;;;;8.45;69.84;97916.41;4956801;28;20034;-74
2022/03/29 06:52:42;;;;;;;36.20;20.60;;;;;;;8.50;70.17;97910.06;4956628;28;20042;-74
2022/03/29 06:55:10;;;;;;;35.17;20.85;;;;;;;8.55;70.15;97914.66;4956893;28;20066;-74
2022/03/29 06:57:36;;;;;;;31.10;18.33;;;;;;;8.66;69.86;97915.31;4956997;28;20035;-74
2022/03/29 07:00:04;;;;;;;28.17;15.93;;;;;;;8.77;69.49;97914.88;4957123;28;20114;-74
2022/03/29 07:02:29;;;;;;;29.58;15.80;;;;;;;8.81;69.80;97908.81;4956778;28;20420;-74
2022/03/29 07:04:55;;;;;;;26.85;16.17;;;;;;;8.83;69.12;97906.59;4955995;28;20099;-74
2022/03/29 07:07:21;;;;;;;24.52;14.50;;;;;;;8.93;69.90;97904.47;4952347;28;20036;-73
2022/03/29 07:12:30;;;;;;;39.38;20.10;;;;;;;8.99;68.83;97904.41;4952412;28;20050;-73
2022/03/29 07:14:59;;;;;;;42.50;20.35;;;;;;;9.04;69.12;97901.59;4953238;28;20035;-74
2022/03/29 07:17:25;;;;;;;36.58;17.98;;;;;;;9.11;69.21;97899.28;4955654;28;20379;-75
2022/03/29 07:19:51;;;;;;;37.58;19.58;;;;;;;9.12;69.12;97900.91;4956311;28;20034;-73
2022/03/29 07:22:18;;;;;;;46.65;24.33;;;;;;;9.09;69.30;97910.50;4955358;28;20038;-73
2022/03/29 07:24:44;;;;;;;39.45;21.75;;;;;;;9.09;69.55;97905.03;4954123;28;20038;-72
2022/03/29 07:27:09;;;;;;;37.70;19.27;;;;;;;9.14;68.83;97904.16;4954423;28;20055;-73
2022/03/29 07:29:35;;;;;;;29.27;15.57;;;;;;;9.25;69.00;97918.47;4955325;28;20117;-74
2022/03/29 07:32:01;;;;;;;28.08;15.63;;;;;;;9.30;68.65;97914.81;4954654;28;20027;-73
2022/03/29 07:34:26;;;;;;;30.80;17.08;;;;;;;9.28;68.43;97906.09;4954504;28;20023;-73
2022/03/29 07:36:52;;;;;;;35.30;18.60;;;;;;;9.27;68.16;97912.66;4955216;28;20464;-74
2022/03/29 07:39:18;;;;;;;41.70;21.65;;;;;;;9.36;68.39;97905.41;4949216;28;20039;-74
2022/03/29 07:41:43;;;;;;;34.30;18.77;;;;;;;9.51;69.21;97902.38;4955361;28;20091;-73
2022/03/29 07:44:09;;;;;;;38.30;21.73;;;;;;;9.60;68.62;97910.69;4954020;28;20078;-73
2022/03/29 07:46:34;;;;;;;28.25;16.67;;;;;;;9.53;67.68;97904.81;4954875;28;20031;-73
2022/03/29 07:49:00;;;;;;;32.42;17.60;;;;;;;9.49;67.54;97915.56;4953743;28;20038;-73
2022/03/29 07:51:25;;;;;;;25.75;15.05;;;;;;;9.57;67.53;97911.31;4954760;28;20031;-73
2022/03/29 07:53:51;;;;;;;24.05;14.27;;;;;;;9.63;66.96;97906.53;4954431;28;20496;-74
2022/03/29 07:56:16;;;;;;;28.67;16.02;;;;;;;9.66;67.65;97901.28;4957836;28;20058;-75
2022/03/29 07:58:41;;;;;;;27.60;16.75;;;;;;;9.74;66.98;97899.75;4954432;28;20035;-72
2022/03/29 08:01:07;;;;;;;27.95;16.42;;;;;;;9.80;66.81;97900.44;4952517;28;20058;-74
2022/03/29 08:03:33;;;;;;;23.90;14.40;;;;;;;9.87;66.31;97902.78;4952780;28;20031;-73
2022/03/29 08:06:01;;;;;;;24.90;14.45;;;;;;;9.94;66.37;97903.19;4951974;28;20082;-72
2022/03/29 08:08:27;;;;;;;31.70;18.50;;;;;;;10.05;66.79;97901.84;4952617;28;20085;-71
2022/03/29 08:10:52;;;;;;;24.67;15.65;;;;;;;10.17;66.11;97898.59;4954860;28;20066;-70
2022/03/29 08:13:18;;;;;;;26.67;14.93;;;;;;;10.25;65.65;97906.06;4950605;28;20077;-71
2022/03/29 08:15:47;;;;;;;21.77;14.23;;;;;;;10.26;65.15;97906.91;4950986;28;20043;-70
2022/03/29 08:18:13;;;;;;;27.73;15.60;;;;;;;10.15;64.68;97908.22;4960064;28;20390;-70
2022/03/29 08:20:39;;;;;;;23.02;14.23;;;;;;;10.12;65.23;97909.66;4953915;28;20155;-72
2022/03/29 08:23:06;;;;;;;21.85;13.10;;;;;;;10.21;64.97;97899.56;4953512;28;20106;-72
2022/03/29 08:25:34;;;;;;;21.63;13.90;;;;;;;10.30;65.42;97902.44;4953940;28;20022;-72
2022/03/29 08:28:00;;;;;;;23.90;14.48;;;;;;;10.41;65.30;97892.88;4951149;28;20063;-70
2022/03/29 08:30:28;;;;;;;23.13;14.68;;;;;;;10.51;65.23;97894.56;4951704;28;20046;-71
2022/03/29 08:32:54;;;;;;;24.88;14.65;;;;;;;10.63;64.84;97894.03;4952911;28;20118;-71
2022/03/29 08:35:19;;;;;;;21.52;12.77;;;;;;;10.71;63.99;97896.03;4952400;28;20110;-71
2022/03/29 08:37:46;;;;;;;23.52;14.70;;;;;;;10.81;64.15;97892.22;4954541;28;20161;-71
2022/03/29 08:40:14;;;;;;;22.90;14.32;;;;;;;10.87;63.20;97892.91;4953860;28;20111;-73
2022/03/29 08:42:44;;;;;;;22.85;13.95;;;;;;;10.85;63.09;97893.22;4970467;28;20052;-72
2022/03/29 08:45:11;;;;;;;19.42;11.35;;;;;;;10.89;63.34;97887.91;4966508;28;20086;-75
2022/03/29 08:47:40;;;;;;;24.50;14.68;;;;;;;10.88;62.75;97891.78;4952613;28;20475;-73
2022/03/29 08:50:07;;;;;;;25.17;14.25;;;;;;;11.00;62.15;97892.03;4952024;28;20027;-72
2022/03/29 08:52:33;;;;;;;23.05;13.05;;;;;;;11.02;62.39;97905.41;4949440;28;20039;-72
2022/03/29 08:54:59;;;;;;;20.63;12.13;;;;;;;11.07;60.91;97899.00;4951989;28;20034;-73
2022/03/29 08:57:25;;;;;;;20.60;12.07;;;;;;;11.11;61.00;97891.78;4952127;28;20106;-80
2022/03/29 08:59:50;;;;;;;22.95;13.52;;;;;;;11.21;61.16;97898.94;4953416;28;20103;-72
2022/03/29 09:02:17;;;;;;;19.13;12.40;;;;;;;11.29;61.00;97896.22;4952143;28;20023;-74
2022/03/29 09:05:06;;;;;;;23.42;12.98;;;;;;;11.21;58.75;97898.94;4951445;28;20019;-76
2022/03/29 09:07:53;;;;;;;21.47;12.17;;;;;;;11.15;58.80;97898.25;4950085;28;20050;-75
2022/03/29 09:10:21;;;;;;;22.98;12.80;;;;;;;11.20;57.99;97894.56;4953063;28;20050;-76
2022/03/29 09:12:47;;;;;;;20.30;12.07;;;;;;;11.22;58.42;97892.31;4968639;28;20030;-74
2022/03/29 09:15:13;;;;;;;19.85;11.50;;;;;;;11.29;58.85;97879.75;4954713;28;20038;-73
2022/03/29 09:17:40;;;;;;;22.63;12.80;;;;;;;11.29;57.36;97882.50;4953394;28;20031;-75
2022/03/29 09:20:08;;;;;;;23.88;13.23;;;;;;;11.34;57.89;97883.50;4950680;28;20467;-76
2022/03/29 09:22:36;;;;;;;27.70;15.05;;;;;;;11.36;58.06;97890.31;4953579;28;20110;-76
2022/03/29 09:25:02;;;;;;;24.88;13.40;;;;;;;11.30;57.45;97881.38;4953475;28;20038;-74
2022/03/29 09:27:27;;;;;;;28.05;14.55;;;;;;;11.37;57.88;97874.63;4954107;28;20053;-76
2022/03/29 09:30:10;;;;;;;23.35;13.48;;;;;;;11.43;57.19;97881.59;4954345;28;20395;-79
2022/03/29 09:33:11;;;;;;;24.92;14.02;;;;;;;11.44;56.98;97884.00;4972686;28;20387;-78
2022/03/29 09:35:56;;;;;;;26.08;13.25;;;;;;;11.46;57.42;97870.00;4973010;28;20113;-77
2022/03/29 09:38:33;;;;;;;21.35;12.90;;;;;;;11.54;57.28;97868.41;4961115;28;20114;-78
2022/03/29 09:41:00;;;;;;;22.88;13.60;;;;;;;11.62;56.93;97862.13;4953475;28;20114;-77
2022/03/29 09:43:27;;;;;;;27.52;15.25;;;;;;;11.62;57.36;97860.19;4947385;28;20035;-75
2022/03/29 09:45:57;;;;;;;28.88;14.75;;;;;;;11.65;57.64;97864.25;4955483;28;20084;-73
2022/03/29 09:48:23;;;;;;;28.13;14.68;;;;;;;11.77;57.36;97858.97;4951081;28;20062;-73
2022/03/29 09:50:53;;;;;;;18.58;11.95;;;;;;;11.91;57.36;97853.34;4949782;28;20031;-74
2022/03/29 09:53:41;;;;;;;23.13;14.10;;;;;;;12.01;57.56;97854.19;4951919;28;20035;-75
2022/03/29 09:56:08;;;;;;;20.02;13.00;;;;;;;12.12;57.48;97860.19;4951941;28;20082;-75
2022/03/29 09:58:33;;;;;;;21.83;13.90;;;;;;;12.15;56.96;97851.31;4965548;28;20023;-76
2022/03/29 10:01:00;;;;;;;23.67;12.10;;;;;;;12.14;56.93;97847.72;4972033;28;20023;-76
2022/03/29 10:03:26;;;;;;;24.67;14.80;;;;;;;12.25;57.15;97855.66;4960226;28;20415;-77
2022/03/29 10:05:53;;;;;;;23.65;14.02;;;;;;;12.30;57.30;97853.56;4951051;28;20051;-76
2022/03/29 10:11:13;;;;;;;24.67;14.40;;;;;;;12.19;56.59;97846.78;4953646;28;20043;-75
2022/03/29 10:13:39;;;;;;;23.55;15.52;;;;;;;12.21;56.47;97848.06;4952677;28;20031;-76
2022/03/29 10:16:09;;;;;;;19.88;12.35;;;;;;;12.38;57.08;97834.66;4954429;28;20476;-78
2022/03/29 10:18:35;;;;;;;24.20;15.40;;;;;;;12.46;56.06;97839.34;4954923;28;20038;-75
2022/03/29 10:21:02;;;;;;;23.33;14.65;;;;;;;12.41;56.37;97834.81;4957357;28;20113;-75
2022/03/29 10:23:29;;;;;;;24.50;15.18;;;;;;;12.36;55.88;97829.47;4955859;28;20036;-74
2022/03/29 10:25:56;;;;;;;26.23;14.63;;;;;;;12.43;55.81;97829.78;4953028;28;20035;-74
2022/03/29 10:28:26;;;;;;;23.15;13.50;;;;;;;12.59;56.01;97826.53;4956065;28;20031;-74
2022/03/29 10:30:51;;;;;;;19.00;11.98;;;;;;;12.68;55.46;97821.84;4957651;28;20043;-74
2022/03/29 10:33:27;;;;;;;25.20;14.13;;;;;;;12.65;55.23;97811.50;4972233;28;20054;-80
2022/03/29 10:35:58;;;;;;;27.63;14.13;;;;;;;12.65;54.49;97806.78;4951274;28;20039;-73
2022/03/29 10:38:44;;;;;;;22.95;13.05;;;;;;;12.77;55.06;97803.38;4954750;28;20372;-73
2022/03/29 10:41:28;;;;;;;20.65;12.40;;;;;;;12.92;54.95;97803.97;4953451;28;20024;-75
2022/03/29 10:44:04;;;;;;;23.70;14.73;;;;;;;12.89;53.90;97804.63;4956207;28;20027;-75
2022/03/29 10:46:40;;;;;;;21.08;13.02;;;;;;;12.71;53.22;97799.19;4954609;28;20035;-74
2022/03/29 10:49:28;;;;;;;23.08;12.52;;;;;;;12.73;53.82;97796.91;4956310;28;20039;-76
2022/03/29 10:52:06;;;;;;;25.50;14.80;;;;;;;12.82;54.19;97793.34;4953624;28;20054;-75
2022/03/29 10:54:36;;;;;;;27.17;13.75;;;;;;;12.97;53.95;97790.03;4951610;28;20031;-77
2022/03/29 10:57:25;;;;;;;18.08;10.63;;;;;;;13.24;54.37;97783.31;4957005;28;20387;-75
2022/03/29 10:59:58;;;;;;;26.77;13.93;;;;;;;13.29;53.53;97785.06;4954598;28;20031;-77
2022/03/29 11:02:25;;;;;;;21.15;13.15;;;;;;;13.36;52.80;97785.38;4953630;28;20121;-76
2022/03/29 11:05:09;;;;;;;20.90;13.23;;;;;;;13.39;52.67;97772.91;4955610;28;20117;-77
2022/03/29 11:07:58;;;;;;;21.30;12.25;;;;;;;13.60;52.96;97777.66;4955904;28;20090;-74
2022/03/29 11:10:46;;;;;;;21.20;12.88;;;;;;;13.69;52.71;97770.16;4961520;28;20039;-72
2022/03/29 11:13:25;;;;;;;25.70;14.40;;;;;;;13.79;52.38;97771.69;4955663;28;20494;-73
2022/03/29 11:15:50;;;;;;;23.85;13.32;;;;;;;13.89;52.54;97762.22;4955236;28;20103;-73
2022/03/29 11:18:31;;;;;;;24.77;15.20;;;;;;;13.84;52.19;97764.06;4958122;28;20101;-76
2022/03/29 11:21:02;;;;;;;22.17;13.73;;;;;;;13.75;51.57;97768.00;4973569;28;20356;-74
2022/03/29 11:23:32;;;;;;;23.05;12.25;;;;;;;13.74;51.98;97769.13;4953524;28;20039;-75
2022/03/29 11:26:04;;;;;;;22.85;13.80;;;;;;;13.81;51.99;97769.41;4953549;28;20026;-75
2022/03/29 11:28:31;;;;;;;20.33;12.02;;;;;;;13.76;51.77;97764.94;4955344;28;20031;-74
2022/03/29 11:30:56;;;;;;;23.55;13.38;;;;;;;13.69;51.75;97754.41;4953432;28;20364;-73
2022/03/29 11:33:31;;;;;;;22.95;13.25;;;;;;;13.67;51.81;97758.66;4954108;28;20057;-75
2022/03/29 11:35:57;;;;;;;24.42;13.88;;;;;;;13.73;51.41;97754.56;4949059;28;20503;-76